sensor_id;sensor_type;location;lat;lon;timestamp;P1;durP1;ratioP1;P2;durP2;ratioP2
54412;SDS011;41533;51.390;0.074;2022-11-20T00:01:13;5.43;;;3.53;;
54412;SDS011;41533;51.390;0.074;2022-11-20T00:03:40;6.07;;;3.03;;
54412;SDS011;41533;51.390;0.074;2022-11-20T00:06:09;6.28;;;3.15;;
54412;SDS011;41533;51.390;0.074;2022-11-20T00:08:37;5.05;;;2.78;;
54412;SDS011;41533;51.390;0.074;2022-11-20T00:11:05;6.97;;;3.80;;
54412;SDS011;41533;51.390;0.074;2022-11-20T00:13:35;7.18;;;3.78;;
54412;SDS011;41533;51.390;0.074;2022-11-20T00:16:03;9.52;;;3.95;;
54412;SDS011;41533;51.390;0.074;2022-11-20T00:18:30;4.30;;;2.60;;
54412;SDS011;41533;51.390;0.074;2022-11-20T00:21:03;5.38;;;2.83;;
54412;SDS011;41533;51.390;0.074;2022-11-20T00:23:30;5.75;;;3.42;;
54412;SDS011;41533;51.390;0.074;2022-11-20T00:26:01;4.53;;;3.00;;
54412;SDS011;41533;51.390;0.074;2022-11-20T00:28:28;5.93;;;3.03;;
54412;SDS011;41533;51.390;0.074;2022-11-20T00:31:05;3.33;;;2.35;;
54412;SDS011;41533;51.390;0.074;2022-11-20T00:33:33;3.53;;;2.47;;
54412;SDS011;41533;51.390;0.074;2022-11-20T00:36:04;5.63;;;2.50;;
54412;SDS011;41533;51.390;0.074;2022-11-20T00:38:32;5.20;;;2.72;;
54412;SDS011;41533;51.390;0.074;2022-11-20T00:41:00;5.38;;;3.00;;
54412;SDS011;41533;51.390;0.074;2022-11-20T00:43:27;7.53;;;2.97;;
54412;SDS011;41533;51.390;0.074;2022-11-20T00:46:02;6.57;;;2.95;;
54412;SDS011;41533;51.390;0.074;2022-11-20T00:48:29;5.03;;;2.72;;
54412;SDS011;41533;51.390;0.074;2022-11-20T00:50:56;4.80;;;2.33;;
54412;SDS011;41533;51.390;0.074;2022-11-20T00:53:24;7.20;;;3.42;;
54412;SDS011;41533;51.390;0.074;2022-11-20T00:55:54;3.95;;;2.33;;
54412;SDS011;41533;51.390;0.074;2022-11-20T00:58:22;4.88;;;2.28;;
54412;SDS011;41533;51.390;0.074;2022-11-20T01:00:50;5.75;;;2.45;;
54412;SDS011;41533;51.390;0.074;2022-11-20T01:03:17;6.50;;;2.63;;
54412;SDS011;41533;51.390;0.074;2022-11-20T01:05:50;4.47;;;2.43;;
54412;SDS011;41533;51.390;0.074;2022-11-20T01:08:17;3.95;;;1.85;;
54412;SDS011;41533;51.390;0.074;2022-11-20T01:10:44;3.47;;;2.00;;
54412;SDS011;41533;51.390;0.074;2022-11-20T01:13:11;7.22;;;2.75;;
54412;SDS011;41533;51.390;0.074;2022-11-20T01:16:01;3.08;;;2.03;;
54412;SDS011;41533;51.390;0.074;2022-11-20T01:18:29;7.80;;;2.60;;
54412;SDS011;41533;51.390;0.074;2022-11-20T01:21:07;7.93;;;2.90;;
54412;SDS011;41533;51.390;0.074;2022-11-20T01:23:35;7.10;;;2.05;;
54412;SDS011;41533;51.390;0.074;2022-11-20T01:26:03;3.00;;;1.60;;
54412;SDS011;41533;51.390;0.074;2022-11-20T01:28:31;6.13;;;2.00;;
54412;SDS011;41533;51.390;0.074;2022-11-20T01:30:59;7.13;;;2.05;;
54412;SDS011;41533;51.390;0.074;2022-11-20T01:33:26;5.57;;;1.75;;
54412;SDS011;41533;51.390;0.074;2022-11-20T01:36:02;2.53;;;1.60;;
54412;SDS011;41533;51.390;0.074;2022-11-20T01:38:29;4.97;;;1.48;;
54412;SDS011;41533;51.390;0.074;2022-11-20T01:40:56;6.60;;;2.17;;
54412;SDS011;41533;51.390;0.074;2022-11-20T01:43:24;4.30;;;1.77;;
54412;SDS011;41533;51.390;0.074;2022-11-20T01:48:40;3.72;;;1.73;;
54412;SDS011;41533;51.390;0.074;2022-11-20T01:51:16;2.05;;;1.25;;
54412;SDS011;41533;51.390;0.074;2022-11-20T01:53:44;2.17;;;1.38;;
54412;SDS011;41533;51.390;0.074;2022-11-20T01:56:12;3.42;;;1.55;;
54412;SDS011;41533;51.390;0.074;2022-11-20T01:58:42;2.42;;;1.40;;
54412;SDS011;41533;51.390;0.074;2022-11-20T02:01:11;6.30;;;1.45;;
54412;SDS011;41533;51.390;0.074;2022-11-20T02:03:39;3.78;;;1.52;;
54412;SDS011;41533;51.390;0.074;2022-11-20T02:06:18;2.92;;;1.25;;
54412;SDS011;41533;51.390;0.074;2022-11-20T02:08:46;1.50;;;1.20;;
54412;SDS011;41533;51.390;0.074;2022-11-20T02:11:15;2.13;;;1.30;;
54412;SDS011;41533;51.390;0.074;2022-11-20T02:13:43;2.83;;;1.17;;
54412;SDS011;41533;51.390;0.074;2022-11-20T02:16:20;1.23;;;0.93;;
54412;SDS011;41533;51.390;0.074;2022-11-20T02:18:48;2.00;;;1.20;;
54412;SDS011;41533;51.390;0.074;2022-11-20T02:26:53;3.30;;;1.23;;
54412;SDS011;41533;51.390;0.074;2022-11-20T02:29:31;2.65;;;1.42;;
54412;SDS011;41533;51.390;0.074;2022-11-20T02:32:00;1.67;;;0.80;;
54412;SDS011;41533;51.390;0.074;2022-11-20T02:34:28;0.98;;;0.93;;
54412;SDS011;41533;51.390;0.074;2022-11-20T02:36:56;0.70;;;0.70;;
54412;SDS011;41533;51.390;0.074;2022-11-20T02:39:24;3.40;;;1.20;;
54412;SDS011;41533;51.390;0.074;2022-11-20T02:41:55;2.70;;;1.20;;
54412;SDS011;41533;51.390;0.074;2022-11-20T02:44:22;1.90;;;1.30;;
54412;SDS011;41533;51.390;0.074;2022-11-20T02:46:50;6.20;;;1.10;;
54412;SDS011;41533;51.390;0.074;2022-11-20T02:49:17;1.10;;;0.75;;
54412;SDS011;41533;51.390;0.074;2022-11-20T02:51:44;1.20;;;1.00;;
54412;SDS011;41533;51.390;0.074;2022-11-20T02:54:14;1.98;;;1.67;;
54412;SDS011;41533;51.390;0.074;2022-11-20T02:56:41;1.48;;;1.02;;
54412;SDS011;41533;51.390;0.074;2022-11-20T02:59:08;2.22;;;1.25;;
54412;SDS011;41533;51.390;0.074;2022-11-20T03:01:36;3.03;;;1.10;;
54412;SDS011;41533;51.390;0.074;2022-11-20T03:04:04;0.88;;;0.52;;
54412;SDS011;41533;51.390;0.074;2022-11-20T03:06:31;2.53;;;0.90;;
54412;SDS011;41533;51.390;0.074;2022-11-20T03:08:58;3.90;;;1.10;;
54412;SDS011;41533;51.390;0.074;2022-11-20T03:11:26;1.60;;;0.80;;
54412;SDS011;41533;51.390;0.074;2022-11-20T03:13:53;1.92;;;1.15;;
54412;SDS011;41533;51.390;0.074;2022-11-20T03:16:21;1.67;;;1.00;;
54412;SDS011;41533;51.390;0.074;2022-11-20T03:18:48;2.85;;;0.90;;
54412;SDS011;41533;51.390;0.074;2022-11-20T03:21:16;1.17;;;1.08;;
54412;SDS011;41533;51.390;0.074;2022-11-20T03:23:43;2.47;;;1.20;;
54412;SDS011;41533;51.390;0.074;2022-11-20T03:26:18;2.00;;;0.98;;
54412;SDS011;41533;51.390;0.074;2022-11-20T03:28:47;0.98;;;0.88;;
54412;SDS011;41533;51.390;0.074;2022-11-20T03:31:14;3.55;;;1.25;;
54412;SDS011;41533;51.390;0.074;2022-11-20T03:33:42;1.23;;;0.73;;
54412;SDS011;41533;51.390;0.074;2022-11-20T03:36:10;4.32;;;0.90;;
54412;SDS011;41533;51.390;0.074;2022-11-20T03:38:38;1.52;;;0.88;;
54412;SDS011;41533;51.390;0.074;2022-11-20T03:41:09;1.27;;;0.65;;
54412;SDS011;41533;51.390;0.074;2022-11-20T03:43:36;1.60;;;0.52;;
54412;SDS011;41533;51.390;0.074;2022-11-20T03:46:04;1.67;;;0.70;;
54412;SDS011;41533;51.390;0.074;2022-11-20T03:48:31;3.97;;;0.60;;
54412;SDS011;41533;51.390;0.074;2022-11-20T03:51:15;2.42;;;0.65;;
54412;SDS011;41533;51.390;0.074;2022-11-20T03:53:43;3.47;;;0.70;;
54412;SDS011;41533;51.390;0.074;2022-11-20T03:56:11;0.50;;;0.50;;
54412;SDS011;41533;51.390;0.074;2022-11-20T03:58:39;1.30;;;0.93;;
54412;SDS011;41533;51.390;0.074;2022-11-20T04:01:07;2.13;;;0.88;;
54412;SDS011;41533;51.390;0.074;2022-11-20T04:03:35;2.10;;;0.60;;
54412;SDS011;41533;51.390;0.074;2022-11-20T04:06:04;1.60;;;0.70;;
54412;SDS011;41533;51.390;0.074;2022-11-20T04:08:31;1.40;;;0.85;;
54412;SDS011;41533;51.390;0.074;2022-11-20T04:11:12;1.98;;;0.68;;
54412;SDS011;41533;51.390;0.074;2022-11-20T04:13:40;1.67;;;1.17;;
54412;SDS011;41533;51.390;0.074;2022-11-20T04:16:07;1.55;;;0.82;;
54412;SDS011;41533;51.390;0.074;2022-11-20T04:18:35;3.40;;;1.20;;
54412;SDS011;41533;51.390;0.074;2022-11-20T04:21:03;2.55;;;0.82;;
54412;SDS011;41533;51.390;0.074;2022-11-20T04:23:30;1.45;;;0.60;;
54412;SDS011;41533;51.390;0.074;2022-11-20T04:26:07;1.13;;;0.75;;
54412;SDS011;41533;51.390;0.074;2022-11-20T04:28:35;1.83;;;0.93;;
54412;SDS011;41533;51.390;0.074;2022-11-20T04:31:06;0.98;;;0.80;;
54412;SDS011;41533;51.390;0.074;2022-11-20T04:33:33;1.92;;;0.80;;
54412;SDS011;41533;51.390;0.074;2022-11-20T04:36:09;3.40;;;1.10;;
54412;SDS011;41533;51.390;0.074;2022-11-20T04:38:37;0.98;;;0.80;;
54412;SDS011;41533;51.390;0.074;2022-11-20T04:41:05;0.98;;;0.77;;
54412;SDS011;41533;51.390;0.074;2022-11-20T04:43:33;1.17;;;0.80;;
54412;SDS011;41533;51.390;0.074;2022-11-20T04:46:00;0.65;;;0.65;;
54412;SDS011;41533;51.390;0.074;2022-11-20T04:48:28;2.58;;;1.08;;
54412;SDS011;41533;51.390;0.074;2022-11-20T04:50:55;1.15;;;0.70;;
54412;SDS011;41533;51.390;0.074;2022-11-20T04:53:23;1.85;;;0.88;;
54412;SDS011;41533;51.390;0.074;2022-11-20T04:55:50;2.10;;;0.80;;
54412;SDS011;41533;51.390;0.074;2022-11-20T04:58:17;1.40;;;0.82;;
54412;SDS011;41533;51.390;0.074;2022-11-20T05:00:44;1.33;;;0.68;;
54412;SDS011;41533;51.390;0.074;2022-11-20T05:03:12;1.50;;;0.70;;
54412;SDS011;41533;51.390;0.074;2022-11-20T05:05:39;4.80;;;0.77;;
54412;SDS011;41533;51.390;0.074;2022-11-20T05:08:06;0.98;;;0.65;;
54412;SDS011;41533;51.390;0.074;2022-11-20T05:10:33;1.75;;;0.70;;
54412;SDS011;41533;51.390;0.074;2022-11-20T05:13:00;1.25;;;1.02;;
54412;SDS011;41533;51.390;0.074;2022-11-20T05:15:28;1.10;;;0.75;;
54412;SDS011;41533;51.390;0.074;2022-11-20T05:17:55;0.93;;;0.60;;
54412;SDS011;41533;51.390;0.074;2022-11-20T05:20:22;2.10;;;0.95;;
54412;SDS011;41533;51.390;0.074;2022-11-20T05:22:49;3.55;;;0.90;;
54412;SDS011;41533;51.390;0.074;2022-11-20T05:25:16;1.83;;;0.85;;
54412;SDS011;41533;51.390;0.074;2022-11-20T05:27:43;1.30;;;0.70;;
54412;SDS011;41533;51.390;0.074;2022-11-20T05:30:11;4.13;;;0.93;;
54412;SDS011;41533;51.390;0.074;2022-11-20T05:32:38;1.98;;;0.90;;
54412;SDS011;41533;51.390;0.074;2022-11-20T05:35:06;0.85;;;0.80;;
54412;SDS011;41533;51.390;0.074;2022-11-20T05:37:33;2.35;;;0.98;;
54412;SDS011;41533;51.390;0.074;2022-11-20T05:40:00;3.17;;;1.15;;
54412;SDS011;41533;51.390;0.074;2022-11-20T05:42:30;5.88;;;0.90;;
54412;SDS011;41533;51.390;0.074;2022-11-20T05:44:57;1.58;;;0.68;;
54412;SDS011;41533;51.390;0.074;2022-11-20T05:47:25;1.30;;;0.82;;
54412;SDS011;41533;51.390;0.074;2022-11-20T05:49:52;1.85;;;1.00;;
54412;SDS011;41533;51.390;0.074;2022-11-20T05:52:20;2.83;;;1.13;;
54412;SDS011;41533;51.390;0.074;2022-11-20T05:54:47;1.35;;;0.75;;
54412;SDS011;41533;51.390;0.074;2022-11-20T05:57:14;4.45;;;0.90;;
54412;SDS011;41533;51.390;0.074;2022-11-20T05:59:42;1.42;;;0.80;;
54412;SDS011;41533;51.390;0.074;2022-11-20T06:02:09;2.50;;;1.00;;
54412;SDS011;41533;51.390;0.074;2022-11-20T06:04:36;1.00;;;0.80;;
54412;SDS011;41533;51.390;0.074;2022-11-20T06:07:07;1.00;;;0.90;;
54412;SDS011;41533;51.390;0.074;2022-11-20T06:09:34;1.15;;;0.68;;
54412;SDS011;41533;51.390;0.074;2022-11-20T06:12:01;1.55;;;0.70;;
54412;SDS011;41533;51.390;0.074;2022-11-20T06:14:28;6.15;;;1.27;;
54412;SDS011;41533;51.390;0.074;2022-11-20T06:16:56;3.67;;;1.08;;
54412;SDS011;41533;51.390;0.074;2022-11-20T06:19:23;0.82;;;0.47;;
54412;SDS011;41533;51.390;0.074;2022-11-20T06:21:50;1.65;;;0.98;;
54412;SDS011;41533;51.390;0.074;2022-11-20T06:24:17;1.45;;;0.88;;
54412;SDS011;41533;51.390;0.074;2022-11-20T06:26:45;1.13;;;0.88;;
54412;SDS011;41533;51.390;0.074;2022-11-20T06:29:12;2.63;;;1.08;;
54412;SDS011;41533;51.390;0.074;2022-11-20T06:31:39;0.60;;;0.60;;
54412;SDS011;41533;51.390;0.074;2022-11-20T06:34:09;1.70;;;0.70;;
54412;SDS011;41533;51.390;0.074;2022-11-20T06:36:37;2.45;;;0.77;;
54412;SDS011;41533;51.390;0.074;2022-11-20T06:39:04;2.00;;;1.10;;
54412;SDS011;41533;51.390;0.074;2022-11-20T06:41:32;2.55;;;1.00;;
54412;SDS011;41533;51.390;0.074;2022-11-20T06:43:59;2.03;;;0.60;;
54412;SDS011;41533;51.390;0.074;2022-11-20T06:46:27;3.63;;;1.17;;
54412;SDS011;41533;51.390;0.074;2022-11-20T06:48:55;2.15;;;0.80;;
54412;SDS011;41533;51.390;0.074;2022-11-20T06:51:22;1.05;;;0.70;;
54412;SDS011;41533;51.390;0.074;2022-11-20T06:53:50;1.25;;;1.05;;
54412;SDS011;41533;51.390;0.074;2022-11-20T06:56:18;1.02;;;0.60;;
54412;SDS011;41533;51.390;0.074;2022-11-20T06:58:45;1.60;;;0.98;;
54412;SDS011;41533;51.390;0.074;2022-11-20T07:01:13;0.95;;;0.70;;
54412;SDS011;41533;51.390;0.074;2022-11-20T07:03:40;1.83;;;0.70;;
54412;SDS011;41533;51.390;0.074;2022-11-20T07:06:08;0.85;;;0.68;;
54412;SDS011;41533;51.390;0.074;2022-11-20T07:08:35;2.28;;;1.08;;
54412;SDS011;41533;51.390;0.074;2022-11-20T07:11:04;2.20;;;1.00;;
54412;SDS011;41533;51.390;0.074;2022-11-20T07:13:31;1.20;;;0.82;;
54412;SDS011;41533;51.390;0.074;2022-11-20T07:15:59;2.05;;;1.23;;
54412;SDS011;41533;51.390;0.074;2022-11-20T07:18:26;1.90;;;0.88;;
54412;SDS011;41533;51.390;0.074;2022-11-20T07:20:53;1.70;;;0.80;;
54412;SDS011;41533;51.390;0.074;2022-11-20T07:23:21;2.58;;;0.98;;
54412;SDS011;41533;51.390;0.074;2022-11-20T07:25:48;1.35;;;0.70;;
54412;SDS011;41533;51.390;0.074;2022-11-20T07:28:16;1.90;;;0.57;;
54412;SDS011;41533;51.390;0.074;2022-11-20T07:30:48;2.28;;;1.00;;
54412;SDS011;41533;51.390;0.074;2022-11-20T07:33:15;1.95;;;0.77;;
54412;SDS011;41533;51.390;0.074;2022-11-20T07:35:43;0.50;;;0.50;;
54412;SDS011;41533;51.390;0.074;2022-11-20T07:38:10;2.20;;;0.70;;
54412;SDS011;41533;51.390;0.074;2022-11-20T07:40:37;1.15;;;0.60;;
54412;SDS011;41533;51.390;0.074;2022-11-20T07:43:04;2.63;;;0.77;;
54412;SDS011;41533;51.390;0.074;2022-11-20T07:45:31;3.03;;;0.98;;
54412;SDS011;41533;51.390;0.074;2022-11-20T07:47:59;0.93;;;0.45;;
54412;SDS011;41533;51.390;0.074;2022-11-20T07:50:26;1.48;;;0.80;;
54412;SDS011;41533;51.390;0.074;2022-11-20T07:52:59;0.35;;;0.35;;
54412;SDS011;41533;51.390;0.074;2022-11-20T07:55:27;0.65;;;0.57;;
54412;SDS011;41533;51.390;0.074;2022-11-20T07:57:54;0.57;;;0.47;;
54412;SDS011;41533;51.390;0.074;2022-11-20T08:00:22;2.08;;;0.60;;
54412;SDS011;41533;51.390;0.074;2022-11-20T08:02:50;0.75;;;0.47;;
54412;SDS011;41533;51.390;0.074;2022-11-20T08:05:17;0.40;;;0.40;;
54412;SDS011;41533;51.390;0.074;2022-11-20T08:07:44;2.30;;;0.43;;
54412;SDS011;41533;51.390;0.074;2022-11-20T08:10:12;1.05;;;0.50;;
54412;SDS011;41533;51.390;0.074;2022-11-20T08:12:43;1.27;;;0.32;;
54412;SDS011;41533;51.390;0.074;2022-11-20T08:15:29;3.33;;;1.00;;
54412;SDS011;41533;51.390;0.074;2022-11-20T08:20:53;2.28;;;0.40;;
54412;SDS011;41533;51.390;0.074;2022-11-20T08:23:20;1.17;;;0.47;;
54412;SDS011;41533;51.390;0.074;2022-11-20T08:25:49;1.08;;;0.50;;
54412;SDS011;41533;51.390;0.074;2022-11-20T08:28:17;0.45;;;0.45;;
54412;SDS011;41533;51.390;0.074;2022-11-20T08:30:48;0.65;;;0.50;;
54412;SDS011;41533;51.390;0.074;2022-11-20T08:33:15;2.67;;;0.50;;
54412;SDS011;41533;51.390;0.074;2022-11-20T08:35:44;0.40;;;0.40;;
54412;SDS011;41533;51.390;0.074;2022-11-20T08:38:11;0.65;;;0.50;;
54412;SDS011;41533;51.390;0.074;2022-11-20T08:40:38;1.60;;;0.75;;
54412;SDS011;41533;51.390;0.074;2022-11-20T08:43:05;0.50;;;0.32;;
54412;SDS011;41533;51.390;0.074;2022-11-20T08:45:33;2.60;;;0.55;;
54412;SDS011;41533;51.390;0.074;2022-11-20T08:48:01;0.63;;;0.63;;
54412;SDS011;41533;51.390;0.074;2022-11-20T08:50:29;0.50;;;0.47;;
54412;SDS011;41533;51.390;0.074;2022-11-20T08:53:05;0.52;;;0.50;;
54412;SDS011;41533;51.390;0.074;2022-11-20T08:55:32;2.67;;;0.50;;
54412;SDS011;41533;51.390;0.074;2022-11-20T08:58:05;1.20;;;0.50;;
54412;SDS011;41533;51.390;0.074;2022-11-20T09:00:33;0.77;;;0.75;;
54412;SDS011;41533;51.390;0.074;2022-11-20T09:03:00;1.95;;;0.70;;
54412;SDS011;41533;51.390;0.074;2022-11-20T09:05:28;0.80;;;0.80;;
54412;SDS011;41533;51.390;0.074;2022-11-20T09:07:56;4.50;;;0.80;;
54412;SDS011;41533;51.390;0.074;2022-11-20T09:10:24;0.93;;;0.82;;
54412;SDS011;41533;51.390;0.074;2022-11-20T09:12:52;1.65;;;0.82;;
54412;SDS011;41533;51.390;0.074;2022-11-20T09:15:20;0.77;;;0.50;;
54412;SDS011;41533;51.390;0.074;2022-11-20T09:17:51;1.85;;;0.95;;
54412;SDS011;41533;51.390;0.074;2022-11-20T09:20:19;2.90;;;0.82;;
54412;SDS011;41533;51.390;0.074;2022-11-20T09:22:46;0.60;;;0.60;;
54412;SDS011;41533;51.390;0.074;2022-11-20T09:25:13;0.52;;;0.50;;
54412;SDS011;41533;51.390;0.074;2022-11-20T09:27:40;1.35;;;0.90;;
54412;SDS011;41533;51.390;0.074;2022-11-20T09:30:13;0.80;;;0.65;;
54412;SDS011;41533;51.390;0.074;2022-11-20T09:32:41;1.40;;;0.70;;
54412;SDS011;41533;51.390;0.074;2022-11-20T09:35:09;1.85;;;0.98;;
54412;SDS011;41533;51.390;0.074;2022-11-20T09:37:37;2.15;;;0.85;;
54412;SDS011;41533;51.390;0.074;2022-11-20T09:40:05;2.63;;;0.80;;
54412;SDS011;41533;51.390;0.074;2022-11-20T09:50:26;2.70;;;1.15;;
54412;SDS011;41533;51.390;0.074;2022-11-20T09:55:21;2.00;;;1.00;;
54412;SDS011;41533;51.390;0.074;2022-11-20T09:57:50;1.88;;;0.80;;
54412;SDS011;41533;51.390;0.074;2022-11-20T10:00:18;2.63;;;1.38;;
54412;SDS011;41533;51.390;0.074;2022-11-20T10:05:35;3.17;;;1.55;;
54412;SDS011;41533;51.390;0.074;2022-11-20T10:10:49;4.97;;;1.33;;
54412;SDS011;41533;51.390;0.074;2022-11-20T10:16:11;1.70;;;1.20;;
54412;SDS011;41533;51.390;0.074;2022-11-20T10:31:26;5.50;;;1.77;;
54412;SDS011;41533;51.390;0.074;2022-11-20T10:33:57;6.88;;;1.30;;
54412;SDS011;41533;51.390;0.074;2022-11-20T10:36:47;4.40;;;1.30;;
54412;SDS011;41533;51.390;0.074;2022-11-20T10:39:18;5.10;;;1.30;;
54412;SDS011;41533;51.390;0.074;2022-11-20T10:41:49;2.20;;;1.00;;
54412;SDS011;41533;51.390;0.074;2022-11-20T10:44:19;1.63;;;1.02;;
54412;SDS011;41533;51.390;0.074;2022-11-20T10:47:08;2.80;;;1.55;;
54412;SDS011;41533;51.390;0.074;2022-11-20T10:49:36;5.70;;;1.42;;
54412;SDS011;41533;51.390;0.074;2022-11-20T11:00:33;4.70;;;1.58;;
54412;SDS011;41533;51.390;0.074;2022-11-20T11:02:39;6.05;;;1.80;;
54412;SDS011;41533;51.390;0.074;2022-11-20T11:05:49;7.18;;;1.52;;
54412;SDS011;41533;51.390;0.074;2022-11-20T11:07:57;8.10;;;2.53;;
54412;SDS011;41533;51.390;0.074;2022-11-20T11:12:52;4.80;;;1.52;;
54412;SDS011;41533;51.390;0.074;2022-11-20T11:15:27;7.53;;;1.80;;
54412;SDS011;41533;51.390;0.074;2022-11-20T11:17:55;2.88;;;1.30;;
54412;SDS011;41533;51.390;0.074;2022-11-20T11:20:24;9.18;;;1.52;;
54412;SDS011;41533;51.390;0.074;2022-11-20T11:22:52;15.05;;;1.90;;
54412;SDS011;41533;51.390;0.074;2022-11-20T11:25:24;4.53;;;1.50;;
54412;SDS011;41533;51.390;0.074;2022-11-20T11:27:52;10.18;;;1.60;;
54412;SDS011;41533;51.390;0.074;2022-11-20T11:30:22;7.85;;;1.88;;
54412;SDS011;41533;51.390;0.074;2022-11-20T11:32:49;3.85;;;1.42;;
54412;SDS011;41533;51.390;0.074;2022-11-20T11:35:21;6.18;;;1.80;;
54412;SDS011;41533;51.390;0.074;2022-11-20T11:37:49;10.27;;;2.17;;
54412;SDS011;41533;51.390;0.074;2022-11-20T11:40:17;6.05;;;2.10;;
54412;SDS011;41533;51.390;0.074;2022-11-20T11:42:52;4.32;;;1.52;;
54412;SDS011;41533;51.390;0.074;2022-11-20T11:45:19;7.68;;;1.60;;
54412;SDS011;41533;51.390;0.074;2022-11-20T11:47:47;6.78;;;1.90;;
54412;SDS011;41533;51.390;0.074;2022-11-20T11:50:16;4.85;;;1.25;;
54412;SDS011;41533;51.390;0.074;2022-11-20T11:55:22;7.68;;;1.70;;
54412;SDS011;41533;51.390;0.074;2022-11-20T11:57:52;6.38;;;1.50;;
54412;SDS011;41533;51.390;0.074;2022-11-20T12:00:21;11.80;;;1.75;;
54412;SDS011;41533;51.390;0.074;2022-11-20T12:03:12;10.93;;;1.98;;
54412;SDS011;41533;51.390;0.074;2022-11-20T12:05:43;10.20;;;1.88;;
54412;SDS011;41533;51.390;0.074;2022-11-20T12:13:32;8.93;;;2.22;;
54412;SDS011;41533;51.390;0.074;2022-11-20T12:16:02;7.30;;;1.58;;
54412;SDS011;41533;51.390;0.074;2022-11-20T12:18:29;4.32;;;1.38;;
54412;SDS011;41533;51.390;0.074;2022-11-20T12:28:53;14.88;;;2.42;;
54412;SDS011;41533;51.390;0.074;2022-11-20T12:36:48;10.60;;;2.58;;
54412;SDS011;41533;51.390;0.074;2022-11-20T12:47:47;9.93;;;2.92;;
54412;SDS011;41533;51.390;0.074;2022-11-20T12:55:21;9.15;;;1.40;;
54412;SDS011;41533;51.390;0.074;2022-11-20T12:57:53;6.30;;;2.35;;
54412;SDS011;41533;51.390;0.074;2022-11-20T13:00:22;12.50;;;2.13;;
54412;SDS011;41533;51.390;0.074;2022-11-20T13:06:11;7.15;;;1.90;;
54412;SDS011;41533;51.390;0.074;2022-11-20T13:08:21;8.60;;;2.63;;
54412;SDS011;41533;51.390;0.074;2022-11-20T13:16:20;17.50;;;2.97;;
54412;SDS011;41533;51.390;0.074;2022-11-20T13:18:49;7.78;;;1.73;;
54412;SDS011;41533;51.390;0.074;2022-11-20T13:23:44;8.10;;;2.17;;
54412;SDS011;41533;51.390;0.074;2022-11-20T13:26:21;15.43;;;2.45;;
54412;SDS011;41533;51.390;0.074;2022-11-20T13:29:11;11.73;;;2.28;;
54412;SDS011;41533;51.390;0.074;2022-11-20T13:31:40;10.23;;;2.28;;
54412;SDS011;41533;51.390;0.074;2022-11-20T13:34:09;14.38;;;1.65;;
54412;SDS011;41533;51.390;0.074;2022-11-20T13:36:48;9.52;;;2.22;;
54412;SDS011;41533;51.390;0.074;2022-11-20T13:39:25;10.15;;;2.15;;
54412;SDS011;41533;51.390;0.074;2022-11-20T13:41:54;7.80;;;2.50;;
54412;SDS011;41533;51.390;0.074;2022-11-20T13:44:35;9.15;;;2.35;;
54412;SDS011;41533;51.390;0.074;2022-11-20T13:49:32;11.88;;;2.15;;
54412;SDS011;41533;51.390;0.074;2022-11-20T13:52:08;7.20;;;2.35;;
54412;SDS011;41533;51.390;0.074;2022-11-20T13:54:55;13.98;;;2.47;;
54412;SDS011;41533;51.390;0.074;2022-11-20T13:59:58;9.70;;;2.33;;
54412;SDS011;41533;51.390;0.074;2022-11-20T14:02:36;7.28;;;3.40;;
54412;SDS011;41533;51.390;0.074;2022-11-20T14:05:04;7.90;;;2.25;;
54412;SDS011;41533;51.390;0.074;2022-11-20T14:07:35;9.55;;;2.22;;
54412;SDS011;41533;51.390;0.074;2022-11-20T14:10:03;7.22;;;1.58;;
54412;SDS011;41533;51.390;0.074;2022-11-20T14:12:32;10.73;;;2.63;;
54412;SDS011;41533;51.390;0.074;2022-11-20T14:15:00;10.75;;;1.85;;
54412;SDS011;41533;51.390;0.074;2022-11-20T14:17:32;6.05;;;1.60;;
54412;SDS011;41533;51.390;0.074;2022-11-20T14:20:01;11.87;;;2.37;;
54412;SDS011;41533;51.390;0.074;2022-11-20T14:22:29;8.75;;;2.10;;
54412;SDS011;41533;51.390;0.074;2022-11-20T14:25:01;12.38;;;2.45;;
54412;SDS011;41533;51.390;0.074;2022-11-20T14:27:29;7.32;;;1.30;;
54412;SDS011;41533;51.390;0.074;2022-11-20T14:29:56;6.40;;;1.30;;
54412;SDS011;41533;51.390;0.074;2022-11-20T14:32:24;6.80;;;2.20;;
54412;SDS011;41533;51.390;0.074;2022-11-20T14:34:54;12.77;;;2.30;;
54412;SDS011;41533;51.390;0.074;2022-11-20T14:37:24;4.43;;;1.52;;
54412;SDS011;41533;51.390;0.074;2022-11-20T14:39:55;14.95;;;2.70;;
54412;SDS011;41533;51.390;0.074;2022-11-20T14:42:26;10.23;;;2.50;;
54412;SDS011;41533;51.390;0.074;2022-11-20T14:44:54;8.55;;;2.15;;
54412;SDS011;41533;51.390;0.074;2022-11-20T14:47:26;4.30;;;1.73;;
54412;SDS011;41533;51.390;0.074;2022-11-20T14:49:54;4.82;;;1.85;;
54412;SDS011;41533;51.390;0.074;2022-11-20T14:52:26;17.90;;;3.38;;
54412;SDS011;41533;51.390;0.074;2022-11-20T14:54:54;8.35;;;1.98;;
54412;SDS011;41533;51.390;0.074;2022-11-20T14:57:29;12.05;;;2.47;;
54412;SDS011;41533;51.390;0.074;2022-11-20T15:00:07;7.97;;;1.80;;
54412;SDS011;41533;51.390;0.074;2022-11-20T15:02:38;9.93;;;2.42;;
54412;SDS011;41533;51.390;0.074;2022-11-20T15:05:06;7.93;;;2.03;;
54412;SDS011;41533;51.390;0.074;2022-11-20T15:07:37;13.30;;;2.45;;
54412;SDS011;41533;51.390;0.074;2022-11-20T15:10:08;10.82;;;2.42;;
54412;SDS011;41533;51.390;0.074;2022-11-20T15:12:55;9.60;;;2.35;;
54412;SDS011;41533;51.390;0.074;2022-11-20T15:15:30;7.00;;;1.77;;
54412;SDS011;41533;51.390;0.074;2022-11-20T15:17:59;7.85;;;1.77;;
54412;SDS011;41533;51.390;0.074;2022-11-20T15:20:27;9.25;;;2.42;;
54412;SDS011;41533;51.390;0.074;2022-11-20T15:22:55;11.88;;;2.80;;
54412;SDS011;41533;51.390;0.074;2022-11-20T15:25:22;16.75;;;2.75;;
54412;SDS011;41533;51.390;0.074;2022-11-20T15:27:56;7.47;;;2.00;;
54412;SDS011;41533;51.390;0.074;2022-11-20T15:30:24;4.05;;;1.58;;
54412;SDS011;41533;51.390;0.074;2022-11-20T15:32:51;12.90;;;2.25;;
54412;SDS011;41533;51.390;0.074;2022-11-20T15:35:18;5.80;;;1.92;;
54412;SDS011;41533;51.390;0.074;2022-11-20T15:37:46;5.75;;;2.10;;
54412;SDS011;41533;51.390;0.074;2022-11-20T15:40:13;5.50;;;1.27;;
54412;SDS011;41533;51.390;0.074;2022-11-20T15:42:40;7.72;;;1.60;;
54412;SDS011;41533;51.390;0.074;2022-11-20T15:45:28;7.75;;;2.30;;
54412;SDS011;41533;51.390;0.074;2022-11-20T15:47:56;7.60;;;1.85;;
54412;SDS011;41533;51.390;0.074;2022-11-20T15:50:32;6.18;;;1.98;;
54412;SDS011;41533;51.390;0.074;2022-11-20T15:53:01;6.03;;;1.45;;
54412;SDS011;41533;51.390;0.074;2022-11-20T15:55:28;8.02;;;2.15;;
54412;SDS011;41533;51.390;0.074;2022-11-20T15:57:55;7.95;;;1.95;;
54412;SDS011;41533;51.390;0.074;2022-11-20T16:00:23;7.40;;;2.15;;
54412;SDS011;41533;51.390;0.074;2022-11-20T16:02:50;5.03;;;1.73;;
54412;SDS011;41533;51.390;0.074;2022-11-20T16:06:00;5.88;;;1.48;;
54412;SDS011;41533;51.390;0.074;2022-11-20T16:08:28;11.88;;;2.42;;
54412;SDS011;41533;51.390;0.074;2022-11-20T16:10:57;6.15;;;1.92;;
54412;SDS011;41533;51.390;0.074;2022-11-20T16:13:25;7.95;;;2.30;;
54412;SDS011;41533;51.390;0.074;2022-11-20T16:16:32;4.82;;;1.50;;
54412;SDS011;41533;51.390;0.074;2022-11-20T16:18:58;6.40;;;2.13;;
54412;SDS011;41533;51.390;0.074;2022-11-20T16:21:27;9.25;;;1.80;;
54412;SDS011;41533;51.390;0.074;2022-11-20T16:23:58;6.72;;;2.03;;
54412;SDS011;41533;51.390;0.074;2022-11-20T16:26:26;11.07;;;2.10;;
54412;SDS011;41533;51.390;0.074;2022-11-20T16:28:54;4.57;;;1.55;;
54412;SDS011;41533;51.390;0.074;2022-11-20T16:31:21;10.35;;;2.58;;
54412;SDS011;41533;51.390;0.074;2022-11-20T16:33:52;8.68;;;2.00;;
54412;SDS011;41533;51.390;0.074;2022-11-20T16:36:20;14.15;;;3.35;;
54412;SDS011;41533;51.390;0.074;2022-11-20T16:38:52;7.50;;;2.20;;
54412;SDS011;41533;51.390;0.074;2022-11-20T16:41:20;9.25;;;2.55;;
54412;SDS011;41533;51.390;0.074;2022-11-20T16:43:48;5.97;;;1.88;;